sensor_id;sensor_type;location;lat;lon;timestamp;P1;durP1;ratioP1;P2;durP2;ratioP2
6077;SDS011;3067;49.470;10.394;2024-01-30T00:02:12;21.70;;;12.90;;
6077;SDS011;3067;49.470;10.394;2024-01-30T00:04:39;22.13;;;11.80;;
6077;SDS011;3067;49.470;10.394;2024-01-30T00:07:06;19.30;;;11.63;;
6077;SDS011;3067;49.470;10.394;2024-01-30T00:09:35;18.83;;;11.50;;
6077;SDS011;3067;49.470;10.394;2024-01-30T00:12:02;21.17;;;11.03;;
6077;SDS011;3067;49.470;10.394;2024-01-30T00:14:29;15.80;;;10.30;;
6077;SDS011;3067;49.470;10.394;2024-01-30T00:16:56;19.43;;;11.50;;
6077;SDS011;3067;49.470;10.394;2024-01-30T00:19:23;22.00;;;10.57;;
6077;SDS011;3067;49.470;10.394;2024-01-30T00:21:50;16.60;;;10.70;;
6077;SDS011;3067;49.470;10.394;2024-01-30T00:24:18;13.30;;;9.40;;
6077;SDS011;3067;49.470;10.394;2024-01-30T00:26:46;16.53;;;10.23;;
6077;SDS011;3067;49.470;10.394;2024-01-30T00:29:13;20.80;;;9.83;;
6077;SDS011;3067;49.470;10.394;2024-01-30T00:31:44;16.60;;;10.57;;
6077;SDS011;3067;49.470;10.394;2024-01-30T00:34:11;16.10;;;10.27;;
6077;SDS011;3067;49.470;10.394;2024-01-30T00:36:38;18.90;;;10.57;;
6077;SDS011;3067;49.470;10.394;2024-01-30T00:39:05;19.67;;;10.67;;
6077;SDS011;3067;49.470;10.394;2024-01-30T00:41:34;18.23;;;10.00;;
6077;SDS011;3067;49.470;10.394;2024-01-30T00:44:02;17.17;;;10.30;;
6077;SDS011;3067;49.470;10.394;2024-01-30T00:46:30;13.57;;;9.17;;
6077;SDS011;3067;49.470;10.394;2024-01-30T00:48:57;15.10;;;10.10;;
6077;SDS011;3067;49.470;10.394;2024-01-30T00:51:24;19.60;;;10.57;;
6077;SDS011;3067;49.470;10.394;2024-01-30T00:53:51;15.00;;;9.60;;
6077;SDS011;3067;49.470;10.394;2024-01-30T00:56:18;17.43;;;9.77;;
6077;SDS011;3067;49.470;10.394;2024-01-30T00:58:46;14.93;;;9.93;;
6077;SDS011;3067;49.470;10.394;2024-01-30T01:01:14;17.93;;;10.53;;
6077;SDS011;3067;49.470;10.394;2024-01-30T01:03:41;14.67;;;9.13;;
6077;SDS011;3067;49.470;10.394;2024-01-30T01:06:08;16.73;;;10.07;;
6077;SDS011;3067;49.470;10.394;2024-01-30T01:08:36;17.70;;;9.77;;
6077;SDS011;3067;49.470;10.394;2024-01-30T01:11:03;17.93;;;9.63;;
6077;SDS011;3067;49.470;10.394;2024-01-30T01:13:30;14.80;;;10.20;;
6077;SDS011;3067;49.470;10.394;2024-01-30T01:15:57;15.40;;;10.10;;
6077;SDS011;3067;49.470;10.394;2024-01-30T01:18:25;17.60;;;9.87;;
6077;SDS011;3067;49.470;10.394;2024-01-30T01:20:53;19.63;;;10.43;;
6077;SDS011;3067;49.470;10.394;2024-01-30T01:23:20;21.53;;;9.00;;
6077;SDS011;3067;49.470;10.394;2024-01-30T01:25:47;15.83;;;8.80;;
6077;SDS011;3067;49.470;10.394;2024-01-30T01:28:14;13.60;;;9.67;;
6077;SDS011;3067;49.470;10.394;2024-01-30T01:30:41;14.00;;;8.97;;
6077;SDS011;3067;49.470;10.394;2024-01-30T01:33:08;16.93;;;9.87;;
6077;SDS011;3067;49.470;10.394;2024-01-30T01:35:36;21.00;;;8.67;;
6077;SDS011;3067;49.470;10.394;2024-01-30T01:38:04;21.30;;;10.00;;
6077;SDS011;3067;49.470;10.394;2024-01-30T01:40:31;15.00;;;9.77;;
6077;SDS011;3067;49.470;10.394;2024-01-30T01:42:59;16.73;;;9.57;;
6077;SDS011;3067;49.470;10.394;2024-01-30T01:45:30;17.00;;;9.70;;
6077;SDS011;3067;49.470;10.394;2024-01-30T01:47:57;13.23;;;8.77;;
6077;SDS011;3067;49.470;10.394;2024-01-30T01:50:24;15.27;;;9.57;;
6077;SDS011;3067;49.470;10.394;2024-01-30T01:52:53;15.20;;;10.10;;
6077;SDS011;3067;49.470;10.394;2024-01-30T01:55:21;16.30;;;10.30;;
6077;SDS011;3067;49.470;10.394;2024-01-30T01:57:50;16.33;;;9.90;;
6077;SDS011;3067;49.470;10.394;2024-01-30T02:00:18;13.10;;;9.07;;
6077;SDS011;3067;49.470;10.394;2024-01-30T02:02:46;14.07;;;9.20;;
6077;SDS011;3067;49.470;10.394;2024-01-30T02:05:14;17.23;;;9.70;;
6077;SDS011;3067;49.470;10.394;2024-01-30T02:07:42;18.50;;;9.90;;
6077;SDS011;3067;49.470;10.394;2024-01-30T02:10:11;14.97;;;9.70;;
6077;SDS011;3067;49.470;10.394;2024-01-30T02:12:38;15.13;;;10.10;;
6077;SDS011;3067;49.470;10.394;2024-01-30T02:15:06;16.53;;;9.40;;
6077;SDS011;3067;49.470;10.394;2024-01-30T02:17:33;15.97;;;9.90;;
6077;SDS011;3067;49.470;10.394;2024-01-30T02:20:01;17.70;;;9.43;;
6077;SDS011;3067;49.470;10.394;2024-01-30T02:22:29;16.47;;;10.20;;
6077;SDS011;3067;49.470;10.394;2024-01-30T02:24:58;16.03;;;9.93;;
6077;SDS011;3067;49.470;10.394;2024-01-30T02:27:25;16.43;;;10.23;;
6077;SDS011;3067;49.470;10.394;2024-01-30T02:29:53;14.23;;;9.50;;
6077;SDS011;3067;49.470;10.394;2024-01-30T02:32:20;14.17;;;10.00;;
6077;SDS011;3067;49.470;10.394;2024-01-30T02:34:47;15.57;;;10.10;;
6077;SDS011;3067;49.470;10.394;2024-01-30T02:37:14;17.30;;;10.40;;
6077;SDS011;3067;49.470;10.394;2024-01-30T02:39:42;14.33;;;9.17;;
6077;SDS011;3067;49.470;10.394;2024-01-30T02:42:09;16.03;;;9.30;;
6077;SDS011;3067;49.470;10.394;2024-01-30T02:44:36;17.30;;;9.50;;
6077;SDS011;3067;49.470;10.394;2024-01-30T02:47:03;14.60;;;9.60;;
6077;SDS011;3067;49.470;10.394;2024-01-30T02:49:31;14.63;;;9.60;;
6077;SDS011;3067;49.470;10.394;2024-01-30T02:51:58;17.53;;;9.77;;
6077;SDS011;3067;49.470;10.394;2024-01-30T02:54:25;13.70;;;9.20;;
6077;SDS011;3067;49.470;10.394;2024-01-30T02:56:53;14.23;;;9.00;;
6077;SDS011;3067;49.470;10.394;2024-01-30T02:59:20;15.90;;;9.67;;
6077;SDS011;3067;49.470;10.394;2024-01-30T03:01:47;16.60;;;9.97;;
6077;SDS011;3067;49.470;10.394;2024-01-30T03:04:14;14.50;;;9.77;;
6077;SDS011;3067;49.470;10.394;2024-01-30T03:06:44;15.10;;;9.83;;
6077;SDS011;3067;49.470;10.394;2024-01-30T03:09:12;15.43;;;9.67;;
6077;SDS011;3067;49.470;10.394;2024-01-30T03:11:39;15.67;;;10.00;;
6077;SDS011;3067;49.470;10.394;2024-01-30T03:14:08;16.27;;;9.30;;
6077;SDS011;3067;49.470;10.394;2024-01-30T03:16:36;14.00;;;9.40;;
6077;SDS011;3067;49.470;10.394;2024-01-30T03:19:04;14.20;;;9.33;;
6077;SDS011;3067;49.470;10.394;2024-01-30T03:21:32;16.23;;;9.00;;
6077;SDS011;3067;49.470;10.394;2024-01-30T03:23:59;15.03;;;8.77;;
6077;SDS011;3067;49.470;10.394;2024-01-30T03:26:27;16.47;;;9.67;;
6077;SDS011;3067;49.470;10.394;2024-01-30T03:28:54;14.60;;;9.13;;
6077;SDS011;3067;49.470;10.394;2024-01-30T03:31:22;17.03;;;10.10;;
6077;SDS011;3067;49.470;10.394;2024-01-30T03:33:49;21.07;;;9.63;;
6077;SDS011;3067;49.470;10.394;2024-01-30T03:36:16;16.27;;;9.07;;
6077;SDS011;3067;49.470;10.394;2024-01-30T03:38:43;13.47;;;8.93;;
6077;SDS011;3067;49.470;10.394;2024-01-30T03:41:10;16.30;;;8.83;;
6077;SDS011;3067;49.470;10.394;2024-01-30T03:43:37;14.60;;;9.50;;
6077;SDS011;3067;49.470;10.394;2024-01-30T03:46:04;16.10;;;9.40;;
6077;SDS011;3067;49.470;10.394;2024-01-30T03:48:33;15.50;;;9.20;;
6077;SDS011;3067;49.470;10.394;2024-01-30T03:51:00;14.33;;;8.93;;
6077;SDS011;3067;49.470;10.394;2024-01-30T03:53:27;17.13;;;8.70;;
6077;SDS011;3067;49.470;10.394;2024-01-30T03:55:54;14.17;;;8.67;;
6077;SDS011;3067;49.470;10.394;2024-01-30T03:58:21;14.77;;;9.10;;
6077;SDS011;3067;49.470;10.394;2024-01-30T04:00:48;14.50;;;10.10;;
6077;SDS011;3067;49.470;10.394;2024-01-30T04:03:15;17.33;;;9.80;;
6077;SDS011;3067;49.470;10.394;2024-01-30T04:05:44;11.93;;;8.40;;
6077;SDS011;3067;49.470;10.394;2024-01-30T04:08:11;12.90;;;9.17;;
6077;SDS011;3067;49.470;10.394;2024-01-30T04:10:38;15.60;;;9.33;;
6077;SDS011;3067;49.470;10.394;2024-01-30T04:13:06;15.10;;;8.83;;
6077;SDS011;3067;49.470;10.394;2024-01-30T04:15:33;18.53;;;9.03;;
6077;SDS011;3067;49.470;10.394;2024-01-30T04:18:00;16.40;;;9.37;;
6077;SDS011;3067;49.470;10.394;2024-01-30T04:20:27;13.23;;;9.23;;
6077;SDS011;3067;49.470;10.394;2024-01-30T04:22:56;15.27;;;9.13;;
6077;SDS011;3067;49.470;10.394;2024-01-30T04:25:23;14.13;;;9.50;;
6077;SDS011;3067;49.470;10.394;2024-01-30T04:27:50;16.90;;;10.00;;
6077;SDS011;3067;49.470;10.394;2024-01-30T04:30:17;13.10;;;8.67;;
6077;SDS011;3067;49.470;10.394;2024-01-30T04:32:45;13.43;;;9.53;;
6077;SDS011;3067;49.470;10.394;2024-01-30T04:35:12;11.67;;;8.80;;
6077;SDS011;3067;49.470;10.394;2024-01-30T04:37:39;13.03;;;8.60;;
6077;SDS011;3067;49.470;10.394;2024-01-30T04:40:08;14.50;;;9.10;;
6077;SDS011;3067;49.470;10.394;2024-01-30T04:42:35;13.80;;;9.10;;
6077;SDS011;3067;49.470;10.394;2024-01-30T04:45:02;13.40;;;9.53;;
6077;SDS011;3067;49.470;10.394;2024-01-30T04:47:30;12.23;;;8.40;;
6077;SDS011;3067;49.470;10.394;2024-01-30T04:49:57;21.70;;;10.10;;
6077;SDS011;3067;49.470;10.394;2024-01-30T04:52:24;14.93;;;9.30;;
6077;SDS011;3067;49.470;10.394;2024-01-30T04:54:51;16.20;;;9.40;;
6077;SDS011;3067;49.470;10.394;2024-01-30T04:57:20;15.47;;;9.10;;
6077;SDS011;3067;49.470;10.394;2024-01-30T04:59:47;16.73;;;9.33;;
6077;SDS011;3067;49.470;10.394;2024-01-30T05:02:14;11.60;;;8.90;;
6077;SDS011;3067;49.470;10.394;2024-01-30T05:04:41;15.53;;;9.23;;
6077;SDS011;3067;49.470;10.394;2024-01-30T05:07:08;13.47;;;8.67;;
6077;SDS011;3067;49.470;10.394;2024-01-30T05:09:35;16.00;;;9.10;;
6077;SDS011;3067;49.470;10.394;2024-01-30T05:12:03;14.20;;;9.70;;
6077;SDS011;3067;49.470;10.394;2024-01-30T05:14:32;15.23;;;9.30;;
6077;SDS011;3067;49.470;10.394;2024-01-30T05:16:59;18.97;;;9.00;;
6077;SDS011;3067;49.470;10.394;2024-01-30T05:19:28;15.23;;;9.13;;
6077;SDS011;3067;49.470;10.394;2024-01-30T05:21:55;11.37;;;8.60;;
6077;SDS011;3067;49.470;10.394;2024-01-30T05:24:22;13.87;;;8.50;;
6077;SDS011;3067;49.470;10.394;2024-01-30T05:26:49;12.57;;;8.90;;
6077;SDS011;3067;49.470;10.394;2024-01-30T05:29:16;13.67;;;8.73;;
6077;SDS011;3067;49.470;10.394;2024-01-30T05:31:44;14.20;;;8.97;;
6077;SDS011;3067;49.470;10.394;2024-01-30T05:34:11;14.60;;;9.40;;
6077;SDS011;3067;49.470;10.394;2024-01-30T05:36:39;15.10;;;9.40;;
6077;SDS011;3067;49.470;10.394;2024-01-30T05:39:06;11.97;;;8.77;;
6077;SDS011;3067;49.470;10.394;2024-01-30T05:41:33;13.23;;;8.80;;
6077;SDS011;3067;49.470;10.394;2024-01-30T05:44:00;15.87;;;8.80;;
6077;SDS011;3067;49.470;10.394;2024-01-30T05:46:27;16.87;;;9.80;;
6077;SDS011;3067;49.470;10.394;2024-01-30T05:48:56;14.10;;;9.30;;
6077;SDS011;3067;49.470;10.394;2024-01-30T05:51:23;14.67;;;9.17;;
6077;SDS011;3067;49.470;10.394;2024-01-30T05:53:50;14.10;;;9.33;;
6077;SDS011;3067;49.470;10.394;2024-01-30T05:56:17;13.80;;;8.87;;
6077;SDS011;3067;49.470;10.394;2024-01-30T05:58:44;13.60;;;8.27;;
6077;SDS011;3067;49.470;10.394;2024-01-30T06:01:11;14.00;;;9.10;;
6077;SDS011;3067;49.470;10.394;2024-01-30T06:03:38;16.70;;;8.93;;
6077;SDS011;3067;49.470;10.394;2024-01-30T06:06:07;25.97;;;9.10;;
6077;SDS011;3067;49.470;10.394;2024-01-30T06:08:34;13.83;;;8.70;;
6077;SDS011;3067;49.470;10.394;2024-01-30T06:11:01;14.73;;;9.40;;
6077;SDS011;3067;49.470;10.394;2024-01-30T06:13:28;14.43;;;9.00;;
6077;SDS011;3067;49.470;10.394;2024-01-30T06:15:57;11.37;;;8.60;;
6077;SDS011;3067;49.470;10.394;2024-01-30T06:18:24;12.60;;;8.93;;
6077;SDS011;3067;49.470;10.394;2024-01-30T06:20:52;12.70;;;8.90;;
6077;SDS011;3067;49.470;10.394;2024-01-30T06:23:20;14.60;;;8.37;;
6077;SDS011;3067;49.470;10.394;2024-01-30T06:25:47;14.77;;;9.83;;
6077;SDS011;3067;49.470;10.394;2024-01-30T06:28:14;17.07;;;10.40;;
6077;SDS011;3067;49.470;10.394;2024-01-30T06:30:41;13.10;;;9.27;;
6077;SDS011;3067;49.470;10.394;2024-01-30T06:33:11;13.70;;;9.03;;
6077;SDS011;3067;49.470;10.394;2024-01-30T06:35:38;18.50;;;9.70;;
6077;SDS011;3067;49.470;10.394;2024-01-30T06:38:06;16.60;;;9.10;;
6077;SDS011;3067;49.470;10.394;2024-01-30T06:40:35;15.40;;;9.50;;
6077;SDS011;3067;49.470;10.394;2024-01-30T06:43:02;13.63;;;9.40;;
6077;SDS011;3067;49.470;10.394;2024-01-30T06:45:30;17.90;;;10.10;;
6077;SDS011;3067;49.470;10.394;2024-01-30T06:47:58;20.57;;;10.40;;
6077;SDS011;3067;49.470;10.394;2024-01-30T06:50:25;17.80;;;9.80;;
6077;SDS011;3067;49.470;10.394;2024-01-30T06:52:52;17.63;;;10.10;;
6077;SDS011;3067;49.470;10.394;2024-01-30T06:55:19;14.03;;;10.20;;
6077;SDS011;3067;49.470;10.394;2024-01-30T06:57:47;21.63;;;9.50;;
6077;SDS011;3067;49.470;10.394;2024-01-30T07:00:15;15.30;;;9.90;;
6077;SDS011;3067;49.470;10.394;2024-01-30T07:02:44;15.37;;;9.03;;
6077;SDS011;3067;49.470;10.394;2024-01-30T07:05:11;14.87;;;9.17;;
6077;SDS011;3067;49.470;10.394;2024-01-30T07:07:39;14.73;;;9.80;;
6077;SDS011;3067;49.470;10.394;2024-01-30T07:10:06;15.63;;;9.77;;
6077;SDS011;3067;49.470;10.394;2024-01-30T07:12:34;11.33;;;9.10;;
6077;SDS011;3067;49.470;10.394;2024-01-30T07:15:03;14.07;;;8.90;;
6077;SDS011;3067;49.470;10.394;2024-01-30T07:17:33;16.50;;;9.73;;
6077;SDS011;3067;49.470;10.394;2024-01-30T07:20:00;15.77;;;9.83;;
6077;SDS011;3067;49.470;10.394;2024-01-30T07:22:28;21.10;;;9.50;;
6077;SDS011;3067;49.470;10.394;2024-01-30T07:24:56;15.93;;;9.53;;
6077;SDS011;3067;49.470;10.394;2024-01-30T07:27:23;20.40;;;10.80;;
6077;SDS011;3067;49.470;10.394;2024-01-30T07:29:50;18.87;;;9.97;;
6077;SDS011;3067;49.470;10.394;2024-01-30T07:32:18;18.53;;;9.77;;
6077;SDS011;3067;49.470;10.394;2024-01-30T07:34:46;17.37;;;10.10;;
6077;SDS011;3067;49.470;10.394;2024-01-30T07:37:13;17.97;;;10.00;;
6077;SDS011;3067;49.470;10.394;2024-01-30T07:39:41;13.60;;;9.73;;
6077;SDS011;3067;49.470;10.394;2024-01-30T07:42:08;17.93;;;10.40;;
6077;SDS011;3067;49.470;10.394;2024-01-30T07:44:35;17.87;;;9.90;;
6077;SDS011;3067;49.470;10.394;2024-01-30T07:47:02;15.43;;;9.83;;
6077;SDS011;3067;49.470;10.394;2024-01-30T07:49:33;15.93;;;10.03;;
6077;SDS011;3067;49.470;10.394;2024-01-30T07:52:00;19.47;;;11.00;;
6077;SDS011;3067;49.470;10.394;2024-01-30T07:54:30;14.87;;;10.00;;
6077;SDS011;3067;49.470;10.394;2024-01-30T07:56:58;19.20;;;9.87;;
6077;SDS011;3067;49.470;10.394;2024-01-30T07:59:25;21.67;;;11.30;;
6077;SDS011;3067;49.470;10.394;2024-01-30T08:01:52;14.47;;;9.80;;
6077;SDS011;3067;49.470;10.394;2024-01-30T08:04:20;20.23;;;10.50;;
6077;SDS011;3067;49.470;10.394;2024-01-30T08:06:48;17.80;;;10.97;;
6077;SDS011;3067;49.470;10.394;2024-01-30T08:09:15;18.13;;;10.87;;
6077;SDS011;3067;49.470;10.394;2024-01-30T08:11:43;17.17;;;10.40;;
6077;SDS011;3067;49.470;10.394;2024-01-30T08:14:10;16.60;;;10.23;;
6077;SDS011;3067;49.470;10.394;2024-01-30T08:16:38;15.37;;;11.00;;
6077;SDS011;3067;49.470;10.394;2024-01-30T08:19:06;18.63;;;10.73;;
6077;SDS011;3067;49.470;10.394;2024-01-30T08:21:33;18.40;;;10.97;;
6077;SDS011;3067;49.470;10.394;2024-01-30T08:24:03;15.50;;;10.57;;
6077;SDS011;3067;49.470;10.394;2024-01-30T08:28:57;15.87;;;10.30;;
6077;SDS011;3067;49.470;10.394;2024-01-30T08:31:25;16.47;;;10.37;;
6077;SDS011;3067;49.470;10.394;2024-01-30T08:33:53;17.37;;;10.00;;
6077;SDS011;3067;49.470;10.394;2024-01-30T08:36:20;18.40;;;10.70;;
6077;SDS011;3067;49.470;10.394;2024-01-30T08:38:47;16.17;;;10.27;;
6077;SDS011;3067;49.470;10.394;2024-01-30T08:41:15;18.50;;;10.70;;
6077;SDS011;3067;49.470;10.394;2024-01-30T08:43:42;16.07;;;11.10;;
6077;SDS011;3067;49.470;10.394;2024-01-30T08:46:10;19.10;;;11.10;;
6077;SDS011;3067;49.470;10.394;2024-01-30T08:48:38;19.77;;;11.67;;
6077;SDS011;3067;49.470;10.394;2024-01-30T08:51:05;17.67;;;11.30;;
6077;SDS011;3067;49.470;10.394;2024-01-30T08:53:34;20.43;;;11.43;;
6077;SDS011;3067;49.470;10.394;2024-01-30T08:56:02;19.43;;;11.20;;
6077;SDS011;3067;49.470;10.394;2024-01-30T08:58:30;18.27;;;11.30;;
6077;SDS011;3067;49.470;10.394;2024-01-30T09:00:58;18.47;;;11.20;;
6077;SDS011;3067;49.470;10.394;2024-01-30T09:03:25;19.13;;;11.67;;
6077;SDS011;3067;49.470;10.394;2024-01-30T09:05:52;18.80;;;11.30;;
6077;SDS011;3067;49.470;10.394;2024-01-30T09:08:19;16.57;;;10.60;;
6077;SDS011;3067;49.470;10.394;2024-01-30T09:10:46;20.83;;;11.63;;
6077;SDS011;3067;49.470;10.394;2024-01-30T09:13:15;18.77;;;11.10;;
6077;SDS011;3067;49.470;10.394;2024-01-30T09:15:43;17.07;;;10.73;;
6077;SDS011;3067;49.470;10.394;2024-01-30T09:18:10;18.20;;;10.90;;
6077;SDS011;3067;49.470;10.394;2024-01-30T09:20:37;17.53;;;11.20;;
6077;SDS011;3067;49.470;10.394;2024-01-30T09:23:04;16.10;;;10.83;;
6077;SDS011;3067;49.470;10.394;2024-01-30T09:25:31;18.30;;;10.60;;
6077;SDS011;3067;49.470;10.394;2024-01-30T09:27:59;24.33;;;12.20;;
6077;SDS011;3067;49.470;10.394;2024-01-30T09:30:27;18.47;;;11.53;;
6077;SDS011;3067;49.470;10.394;2024-01-30T09:32:55;16.13;;;10.97;;
6077;SDS011;3067;49.470;10.394;2024-01-30T09:35:22;18.87;;;12.03;;
6077;SDS011;3067;49.470;10.394;2024-01-30T09:37:49;21.03;;;12.30;;
6077;SDS011;3067;49.470;10.394;2024-01-30T09:40:17;19.03;;;10.53;;
6077;SDS011;3067;49.470;10.394;2024-01-30T09:42:46;15.13;;;10.73;;
6077;SDS011;3067;49.470;10.394;2024-01-30T09:45:14;17.63;;;11.03;;
6077;SDS011;3067;49.470;10.394;2024-01-30T09:47:42;16.03;;;11.27;;
6077;SDS011;3067;49.470;10.394;2024-01-30T09:50:11;18.00;;;11.40;;
6077;SDS011;3067;49.470;10.394;2024-01-30T09:52:40;17.90;;;11.37;;
6077;SDS011;3067;49.470;10.394;2024-01-30T09:55:07;17.77;;;11.50;;
6077;SDS011;3067;49.470;10.394;2024-01-30T09:57:34;19.27;;;12.00;;
6077;SDS011;3067;49.470;10.394;2024-01-30T10:00:02;16.20;;;11.30;;
6077;SDS011;3067;49.470;10.394;2024-01-30T10:02:30;17.67;;;12.20;;
6077;SDS011;3067;49.470;10.394;2024-01-30T10:04:58;21.20;;;12.20;;
6077;SDS011;3067;49.470;10.394;2024-01-30T10:07:27;22.80;;;13.30;;
6077;SDS011;3067;49.470;10.394;2024-01-30T10:09:55;20.73;;;12.83;;
6077;SDS011;3067;49.470;10.394;2024-01-30T10:12:22;26.50;;;13.70;;
6077;SDS011;3067;49.470;10.394;2024-01-30T10:14:52;23.93;;;13.30;;
6077;SDS011;3067;49.470;10.394;2024-01-30T10:17:19;22.40;;;13.27;;
6077;SDS011;3067;49.470;10.394;2024-01-30T10:19:46;19.03;;;12.00;;
6077;SDS011;3067;49.470;10.394;2024-01-30T10:22:13;20.50;;;12.43;;
6077;SDS011;3067;49.470;10.394;2024-01-30T10:24:42;18.50;;;11.77;;
6077;SDS011;3067;49.470;10.394;2024-01-30T10:27:10;16.33;;;11.70;;
6077;SDS011;3067;49.470;10.394;2024-01-30T10:29:37;19.20;;;12.40;;
6077;SDS011;3067;49.470;10.394;2024-01-30T10:32:05;19.40;;;12.77;;
6077;SDS011;3067;49.470;10.394;2024-01-30T10:34:32;19.80;;;12.83;;
6077;SDS011;3067;49.470;10.394;2024-01-30T10:37:00;19.60;;;12.60;;
6077;SDS011;3067;49.470;10.394;2024-01-30T10:39:37;18.33;;;12.50;;
6077;SDS011;3067;49.470;10.394;2024-01-30T10:42:07;18.87;;;12.57;;
6077;SDS011;3067;49.470;10.394;2024-01-30T10:44:41;19.77;;;12.37;;
6077;SDS011;3067;49.470;10.394;2024-01-30T10:47:12;20.63;;;13.60;;
6077;SDS011;3067;49.470;10.394;2024-01-30T10:49:43;20.13;;;13.00;;
6077;SDS011;3067;49.470;10.394;2024-01-30T10:52:11;18.40;;;13.10;;
6077;SDS011;3067;49.470;10.394;2024-01-30T10:54:43;16.40;;;12.60;;
6077;SDS011;3067;49.470;10.394;2024-01-30T10:57:12;19.97;;;13.30;;
6077;SDS011;3067;49.470;10.394;2024-01-30T10:59:42;19.97;;;13.50;;
6077;SDS011;3067;49.470;10.394;2024-01-30T11:02:10;21.10;;;12.90;;
6077;SDS011;3067;49.470;10.394;2024-01-30T11:04:38;26.17;;;14.50;;
6077;SDS011;3067;49.470;10.394;2024-01-30T11:07:16;20.30;;;13.87;;
6077;SDS011;3067;49.470;10.394;2024-01-30T11:09:49;26.70;;;14.97;;
6077;SDS011;3067;49.470;10.394;2024-01-30T11:12:18;22.93;;;14.77;;
6077;SDS011;3067;49.470;10.394;2024-01-30T11:14:48;23.40;;;14.47;;
6077;SDS011;3067;49.470;10.394;2024-01-30T11:17:15;21.60;;;14.33;;
6077;SDS011;3067;49.470;10.394;2024-01-30T11:19:42;23.57;;;14.60;;
6077;SDS011;3067;49.470;10.394;2024-01-30T11:22:10;18.97;;;13.80;;
6077;SDS011;3067;49.470;10.394;2024-01-30T11:24:39;20.07;;;13.90;;
6077;SDS011;3067;49.470;10.394;2024-01-30T11:27:08;20.47;;;13.60;;
6077;SDS011;3067;49.470;10.394;2024-01-30T11:29:37;21.53;;;13.90;;
6077;SDS011;3067;49.470;10.394;2024-01-30T11:32:04;24.57;;;14.53;;
6077;SDS011;3067;49.470;10.394;2024-01-30T11:34:32;19.57;;;14.00;;
6077;SDS011;3067;49.470;10.394;2024-01-30T11:37:03;23.17;;;12.93;;
6077;SDS011;3067;49.470;10.394;2024-01-30T11:39:32;21.87;;;14.17;;
6077;SDS011;3067;49.470;10.394;2024-01-30T11:41:59;21.30;;;13.57;;
6077;SDS011;3067;49.470;10.394;2024-01-30T11:44:28;19.43;;;13.40;;
6077;SDS011;3067;49.470;10.394;2024-01-30T11:46:57;20.70;;;13.00;;
6077;SDS011;3067;49.470;10.394;2024-01-30T11:49:24;19.70;;;13.60;;
6077;SDS011;3067;49.470;10.394;2024-01-30T11:51:51;26.07;;;14.20;;
6077;SDS011;3067;49.470;10.394;2024-01-30T11:54:19;22.33;;;13.80;;
6077;SDS011;3067;49.470;10.394;2024-01-30T11:56:46;21.50;;;13.30;;
6077;SDS011;3067;49.470;10.394;2024-01-30T11:59:13;19.60;;;13.40;;
6077;SDS011;3067;49.470;10.394;2024-01-30T12:01:40;22.60;;;13.60;;
6077;SDS011;3067;49.470;10.394;2024-01-30T12:04:09;21.33;;;13.23;;
6077;SDS011;3067;49.470;10.394;2024-01-30T12:06:36;25.83;;;13.33;;
6077;SDS011;3067;49.470;10.394;2024-01-30T12:09:03;19.67;;;13.10;;
6077;SDS011;3067;49.470;10.394;2024-01-30T12:11:33;19.57;;;13.37;;
6077;SDS011;3067;49.470;10.394;2024-01-30T12:14:09;22.13;;;14.20;;
6077;SDS011;3067;49.470;10.394;2024-01-30T12:16:36;20.57;;;13.93;;
6077;SDS011;3067;49.470;10.394;2024-01-30T12:19:03;22.80;;;14.20;;
6077;SDS011;3067;49.470;10.394;2024-01-30T12:21:33;20.80;;;13.90;;
6077;SDS011;3067;49.470;10.394;2024-01-30T12:24:01;19.70;;;13.83;;
6077;SDS011;3067;49.470;10.394;2024-01-30T12:26:28;21.53;;;14.60;;
6077;SDS011;3067;49.470;10.394;2024-01-30T12:28:55;18.57;;;14.10;;
6077;SDS011;3067;49.470;10.394;2024-01-30T12:31:26;20.00;;;13.83;;
6077;SDS011;3067;49.470;10.394;2024-01-30T12:33:53;25.93;;;14.60;;
6077;SDS011;3067;49.470;10.394;2024-01-30T12:36:20;21.20;;;15.27;;
6077;SDS011;3067;49.470;10.394;2024-01-30T12:38:49;24.33;;;15.07;;
6077;SDS011;3067;49.470;10.394;2024-01-30T12:41:16;25.63;;;15.10;;
6077;SDS011;3067;49.470;10.394;2024-01-30T12:43:44;25.10;;;16.40;;
6077;SDS011;3067;49.470;10.394;2024-01-30T12:46:12;20.60;;;14.60;;
6077;SDS011;3067;49.470;10.394;2024-01-30T12:48:39;22.83;;;13.90;;
6077;SDS011;3067;49.470;10.394;2024-01-30T12:51:06;23.93;;;14.30;;
6077;SDS011;3067;49.470;10.394;2024-01-30T12:53:34;19.33;;;13.07;;
6077;SDS011;3067;49.470;10.394;2024-01-30T12:56:02;21.90;;;13.73;;
6077;SDS011;3067;49.470;10.394;2024-01-30T12:58:30;18.77;;;13.33;;
6077;SDS011;3067;49.470;10.394;2024-01-30T13:00:57;23.30;;;14.57;;
6077;SDS011;3067;49.470;10.394;2024-01-30T13:03:24;24.20;;;14.43;;
6077;SDS011;3067;49.470;10.394;2024-01-30T13:05:51;29.70;;;14.87;;
6077;SDS011;3067;49.470;10.394;2024-01-30T13:08:18;23.40;;;15.80;;
6077;SDS011;3067;49.470;10.394;2024-01-30T13:10:45;30.00;;;17.37;;
6077;SDS011;3067;49.470;10.394;2024-01-30T13:13:13;25.03;;;16.73;;
6077;SDS011;3067;49.470;10.394;2024-01-30T13:15:41;27.50;;;18.03;;
6077;SDS011;3067;49.470;10.394;2024-01-30T13:18:08;29.20;;;18.10;;
6077;SDS011;3067;49.470;10.394;2024-01-30T13:20:35;22.47;;;16.93;;
6077;SDS011;3067;49.470;10.394;2024-01-30T13:23:02;30.23;;;17.70;;
6077;SDS011;3067;49.470;10.394;2024-01-30T13:25:29;31.30;;;17.90;;
6077;SDS011;3067;49.470;10.394;2024-01-30T13:27:56;22.70;;;15.73;;
6077;SDS011;3067;49.470;10.394;2024-01-30T13:30:25;26.07;;;17.30;;
6077;SDS011;3067;49.470;10.394;2024-01-30T13:32:52;23.93;;;16.20;;
6077;SDS011;3067;49.470;10.394;2024-01-30T13:35:19;29.57;;;16.93;;
6077;SDS011;3067;49.470;10.394;2024-01-30T13:37:46;23.47;;;15.83;;
6077;SDS011;3067;49.470;10.394;2024-01-30T13:40:14;23.33;;;16.03;;
6077;SDS011;3067;49.470;10.394;2024-01-30T13:42:41;22.30;;;14.60;;
6077;SDS011;3067;49.470;10.394;2024-01-30T13:45:08;21.73;;;15.57;;
6077;SDS011;3067;49.470;10.394;2024-01-30T13:47:37;22.60;;;14.67;;
6077;SDS011;3067;49.470;10.394;2024-01-30T13:50:04;22.47;;;14.87;;
6077;SDS011;3067;49.470;10.394;2024-01-30T13:52:32;20.07;;;14.57;;
6077;SDS011;3067;49.470;10.394;2024-01-30T13:55:00;20.67;;;14.70;;
6077;SDS011;3067;49.470;10.394;2024-01-30T13:57:27;21.23;;;13.67;;
6077;SDS011;3067;49.470;10.394;2024-01-30T13:59:58;25.70;;;15.07;;
6077;SDS011;3067;49.470;10.394;2024-01-30T14:02:25;20.20;;;13.97;;
6077;SDS011;3067;49.470;10.394;2024-01-30T14:04:53;20.60;;;14.37;;
6077;SDS011;3067;49.470;10.394;2024-01-30T14:07:20;19.80;;;14.27;;
6077;SDS011;3067;49.470;10.394;2024-01-30T14:09:48;21.10;;;15.60;;
6077;SDS011;3067;49.470;10.394;2024-01-30T14:12:15;23.40;;;16.10;;
6077;SDS011;3067;49.470;10.394;2024-01-30T14:14:42;24.70;;;16.30;;
6077;SDS011;3067;49.470;10.394;2024-01-30T14:17:09;24.47;;;16.23;;
6077;SDS011;3067;49.470;10.394;2024-01-30T14:19:37;24.80;;;16.10;;
6077;SDS011;3067;49.470;10.394;2024-01-30T14:22:05;22.10;;;16.37;;
6077;SDS011;3067;49.470;10.394;2024-01-30T14:24:32;26.03;;;15.97;;
6077;SDS011;3067;49.470;10.394;2024-01-30T14:26:59;26.60;;;16.60;;
6077;SDS011;3067;49.470;10.394;2024-01-30T14:29:26;23.27;;;16.67;;
6077;SDS011;3067;49.470;10.394;2024-01-30T14:31:53;29.47;;;16.83;;
6077;SDS011;3067;49.470;10.394;2024-01-30T14:34:22;24.83;;;16.70;;
6077;SDS011;3067;49.470;10.394;2024-01-30T14:36:49;22.90;;;15.80;;
6077;SDS011;3067;49.470;10.394;2024-01-30T14:39:17;22.07;;;15.50;;
6077;SDS011;3067;49.470;10.394;2024-01-30T14:41:44;22.07;;;14.00;;
6077;SDS011;3067;49.470;10.394;2024-01-30T14:44:11;21.10;;;14.47;;
6077;SDS011;3067;49.470;10.394;2024-01-30T14:46:39;19.27;;;13.83;;